Time;durP1;ratioP1;P1;durP2;ratioP2;P2;SDS_P1;SDS_P2;PMS_P1;PMS_P2;Temp;Humidity;BMP_temperature;BMP_pressure;BME280_temperature;BME280_humidity;BME280_pressure;Samples;Min_cycle;Max_cycle;Signal;HPM_P1;HPM_P2
2023/03/04 00:00:23;;;;;;;18.40;16.48;;;;;;;-142.70;100.00;60390.16;4957444;29;20030;-81
2023/03/04 00:02:48;;;;;;;19.33;17.25;;;;;;;-142.70;100.00;60390.16;4973851;29;20042;-81
2023/03/04 00:05:14;;;;;;;20.45;17.38;;;;;;;-142.70;100.00;60390.16;4943786;29;20032;-81
2023/03/04 00:07:39;;;;;;;22.00;16.55;;;;;;;-142.70;100.00;60390.16;4955952;29;20500;-81
2023/03/04 00:10:05;;;;;;;20.20;16.52;;;;;;;-142.70;100.00;60390.16;4940397;29;20047;-82
2023/03/04 00:12:31;;;;;;;21.58;17.42;;;;;;;-142.70;100.00;60390.16;4960103;29;20028;-81
2023/03/04 00:14:56;;;;;;;24.05;19.40;;;;;;;-142.70;100.00;60390.16;4957073;29;20039;-81
2023/03/04 00:17:21;;;;;;;22.40;17.27;;;;;;;-142.70;100.00;60390.16;4955974;29;20142;-81
2023/03/04 00:19:47;;;;;;;19.00;16.13;;;;;;;-142.70;100.00;60390.16;4955447;29;20517;-81
2023/03/04 00:22:12;;;;;;;21.45;15.00;;;;;;;-142.70;100.00;60390.16;4953708;29;20034;-80
2023/03/04 00:24:38;;;;;;;24.48;16.08;;;;;;;-142.70;100.00;60390.16;4954378;29;20382;-81
2023/03/04 00:27:03;;;;;;;18.15;14.90;;;;;;;-142.70;100.00;60390.16;4972702;29;20103;-81
2023/03/04 00:29:29;;;;;;;18.65;15.35;;;;;;;-142.70;100.00;60390.16;4975646;29;20035;-82
2023/03/04 00:31:54;;;;;;;18.20;15.45;;;;;;;-142.70;100.00;60390.16;4969572;28;20035;-80
2023/03/04 00:34:20;;;;;;;18.23;13.32;;;;;;;-142.70;100.00;60390.16;4957549;29;20028;-81
2023/03/04 00:36:45;;;;;;;19.40;14.43;;;;;;;-142.70;100.00;60390.16;4959939;29;20019;-81
2023/03/04 00:39:12;;;;;;;17.27;13.15;;;;;;;-142.70;100.00;60390.16;4976154;29;20018;-80
2023/03/04 00:41:37;;;;;;;20.05;15.30;;;;;;;-142.70;100.00;60390.16;4956657;29;20019;-81
2023/03/04 00:44:04;;;;;;;18.70;15.77;;;;;;;-142.70;100.00;60390.16;4956403;29;20046;-82
2023/03/04 00:46:29;;;;;;;18.10;14.30;;;;;;;-142.70;100.00;60390.16;4969738;28;20042;-81
2023/03/04 00:48:55;;;;;;;18.50;14.65;;;;;;;-142.70;100.00;60390.16;4968789;28;20082;-80
2023/03/04 00:51:20;;;;;;;16.40;13.38;;;;;;;-142.70;100.00;60390.16;4960606;28;20119;-80
2023/03/04 00:53:46;;;;;;;16.00;13.82;;;;;;;-142.70;100.00;60390.16;4955172;29;20038;-82
2023/03/04 00:56:12;;;;;;;15.93;14.23;;;;;;;-142.70;100.00;60390.16;4973666;29;20031;-81
2023/03/04 00:58:39;;;;;;;15.82;14.13;;;;;;;-142.70;100.00;60390.16;4938698;29;20523;-81
2023/03/04 01:01:07;;;;;;;17.27;13.95;;;;;;;-142.70;100.00;60390.16;4956293;29;20011;-81
2023/03/04 01:03:33;;;;;;;18.70;15.35;;;;;;;-142.70;100.00;60390.16;4972368;29;20059;-81
2023/03/04 01:05:58;;;;;;;18.23;16.27;;;;;;;-142.70;100.00;60390.16;4958690;29;20038;-82
2023/03/04 01:08:24;;;;;;;20.48;16.73;;;;;;;-142.70;100.00;60390.16;4976161;28;20083;-82
2023/03/04 01:10:50;;;;;;;20.17;16.60;;;;;;;-142.70;100.00;60390.16;4994213;28;20030;-81
2023/03/04 01:13:16;;;;;;;22.60;18.17;;;;;;;-142.70;100.00;60390.16;4986827;28;20011;-82
2023/03/04 01:15:41;;;;;;;24.88;20.58;;;;;;;-142.70;100.00;60390.16;4974889;28;20047;-82
2023/03/04 01:18:06;;;;;;;23.85;19.02;;;;;;;-142.70;100.00;60390.16;4957257;29;20029;-82
2023/03/04 01:20:32;;;;;;;22.48;17.98;;;;;;;-142.70;100.00;60390.16;4972651;28;20031;-82
2023/03/04 01:22:57;;;;;;;28.50;20.85;;;;;;;-142.70;100.00;60390.16;4956633;29;20055;-82
2023/03/04 01:25:23;;;;;;;26.38;21.67;;;;;;;-142.70;100.00;60390.16;4973517;29;20031;-82
2023/03/04 01:27:48;;;;;;;28.45;22.73;;;;;;;-142.70;100.00;60390.16;4974345;28;20042;-82
2023/03/04 01:30:14;;;;;;;25.30;19.98;;;;;;;-142.70;100.00;60390.16;4973931;29;20038;-82
2023/03/04 01:32:39;;;;;;;27.00;21.48;;;;;;;-142.70;100.00;60390.16;4974687;28;20110;-81
2023/03/04 01:35:05;;;;;;;31.70;25.63;;;;;;;-142.70;100.00;60390.16;4956998;29;20029;-82
2023/03/04 01:37:30;;;;;;;29.05;22.98;;;;;;;-142.70;100.00;60390.16;4957945;29;20027;-82
2023/03/04 01:39:56;;;;;;;31.20;23.38;;;;;;;-142.70;100.00;60390.16;4974916;29;20020;-82
2023/03/04 01:42:23;;;;;;;26.23;20.40;;;;;;;-142.70;100.00;60390.16;4971599;28;20023;-80
2023/03/04 01:44:50;;;;;;;25.60;20.77;;;;;;;-142.70;100.00;60390.16;4928232;29;20031;-80
2023/03/04 01:47:16;;;;;;;27.77;22.73;;;;;;;-142.70;100.00;60390.16;4933178;29;20074;-82
2023/03/04 01:49:42;;;;;;;25.30;21.17;;;;;;;-142.70;100.00;60390.16;4960584;29;20035;-81
2023/03/04 01:52:12;;;;;;;27.50;22.55;;;;;;;-142.70;100.00;60390.16;4959915;29;20043;-82
2023/03/04 01:54:38;;;;;;;27.85;20.85;;;;;;;-142.70;100.00;60390.16;4962693;29;20028;-82
2023/03/04 01:57:21;;;;;;;24.40;21.23;;;;;;;-142.70;100.00;60390.16;4979757;29;20090;-81
2023/03/04 02:00:06;;;;;;;29.58;22.98;;;;;;;-142.70;100.00;60390.16;4959873;29;20050;-80
2023/03/04 02:02:31;;;;;;;26.45;19.85;;;;;;;-142.70;100.00;60390.16;4941200;29;20033;-80
2023/03/04 02:04:56;;;;;;;29.65;22.88;;;;;;;-142.70;100.00;60390.16;4954648;28;20416;-80
2023/03/04 02:07:22;;;;;;;31.08;23.60;;;;;;;-142.70;100.00;60390.16;4935091;29;20517;-79
2023/03/04 02:09:48;;;;;;;29.90;22.38;;;;;;;-142.70;100.00;60390.16;4954431;29;20106;-80
2023/03/04 02:12:13;;;;;;;30.15;22.63;;;;;;;-142.70;100.00;60390.16;4950326;28;20026;-80
2023/03/04 02:14:38;;;;;;;27.00;19.73;;;;;;;-142.70;100.00;60390.16;4962566;28;20074;-80
2023/03/04 02:17:11;;;;;;;28.27;22.67;;;;;;;-142.70;100.00;60390.16;4944412;29;20027;-80
2023/03/04 02:19:55;;;;;;;24.42;19.98;;;;;;;-142.70;100.00;60390.16;4946544;29;20043;-80
2023/03/04 02:22:21;;;;;;;30.05;21.40;;;;;;;-142.70;100.00;60390.16;4963645;28;20059;-80
2023/03/04 02:24:51;;;;;;;28.27;22.25;;;;;;;-142.70;100.00;60390.16;4946067;29;20035;-79
2023/03/04 02:27:17;;;;;;;27.20;20.17;;;;;;;-142.70;100.00;60390.16;4945458;29;20024;-80
2023/03/04 02:29:42;;;;;;;28.90;22.23;;;;;;;-142.70;100.00;60390.16;4943698;29;20024;-79
2023/03/04 02:32:11;;;;;;;28.38;20.88;;;;;;;-142.70;100.00;60390.16;4944245;29;20505;-80
2023/03/04 02:34:37;;;;;;;28.52;21.45;;;;;;;-142.70;100.00;60390.16;4927400;29;20031;-80
2023/03/04 02:37:03;;;;;;;33.22;23.65;;;;;;;-142.70;100.00;60390.16;4947989;29;20082;-80
2023/03/04 02:39:36;;;;;;;29.63;21.48;;;;;;;-142.70;100.00;60390.16;4968749;28;20023;-81
2023/03/04 02:42:02;;;;;;;26.27;20.45;;;;;;;-142.70;100.00;60390.16;4953623;29;20035;-81
2023/03/04 02:44:31;;;;;;;26.52;21.00;;;;;;;-142.70;100.00;60390.16;4969289;28;20575;-80
2023/03/04 02:46:57;;;;;;;24.92;20.77;;;;;;;-142.70;100.00;60390.16;4964268;28;20031;-80
2023/03/04 02:49:24;;;;;;;27.55;19.38;;;;;;;-142.70;100.00;60390.16;4949547;29;20034;-80
2023/03/04 02:51:52;;;;;;;29.48;20.92;;;;;;;-142.70;100.00;60390.16;4942277;29;20445;-80
2023/03/04 02:54:22;;;;;;;27.42;20.02;;;;;;;-142.70;100.00;60390.16;4944036;28;20033;-80
2023/03/04 02:56:52;;;;;;;25.08;19.92;;;;;;;-142.70;100.00;60390.16;4954331;28;20066;-80
2023/03/04 02:59:18;;;;;;;26.98;20.15;;;;;;;-142.70;100.00;60390.16;4903756;29;20052;-79
2023/03/04 03:01:43;;;;;;;26.58;20.15;;;;;;;-142.70;100.00;60390.16;4909549;29;20374;-80
2023/03/04 03:04:09;;;;;;;25.45;19.95;;;;;;;-142.70;100.00;60390.16;4918729;29;20028;-80
2023/03/04 03:06:34;;;;;;;26.88;18.25;;;;;;;-142.70;100.00;60390.16;4926806;29;20028;-80
2023/03/04 03:09:00;;;;;;;26.52;19.70;;;;;;;-142.70;100.00;60390.16;4939704;29;20026;-79
2023/03/04 03:11:25;;;;;;;23.38;18.02;;;;;;;-142.70;100.00;60390.16;4918178;29;20027;-79
2023/03/04 03:13:51;;;;;;;22.65;18.35;;;;;;;-142.70;100.00;60390.16;4914607;29;20036;-79
2023/03/04 03:16:16;;;;;;;27.95;19.52;;;;;;;-142.70;100.00;60390.16;4915862;29;20034;-79
2023/03/04 03:18:42;;;;;;;27.90;20.08;;;;;;;-142.70;100.00;60390.16;4914235;29;20047;-80
2023/03/04 03:21:07;;;;;;;42.67;32.70;;;;;;;-142.70;100.00;60390.16;4918132;29;20088;-80
2023/03/04 03:23:33;;;;;;;66.93;48.90;;;;;;;-142.70;100.00;60390.16;4916309;29;20032;-80
2023/03/04 03:25:59;;;;;;;35.50;28.15;;;;;;;-142.70;100.00;60390.16;4920548;29;20038;-80
2023/03/04 03:28:24;;;;;;;27.60;22.60;;;;;;;-142.70;100.00;60390.16;4912441;29;20111;-80
2023/03/04 03:30:50;;;;;;;26.17;18.80;;;;;;;-142.70;100.00;60390.16;4946800;29;20060;-82
2023/03/04 03:33:15;;;;;;;24.65;19.13;;;;;;;-142.70;100.00;60390.16;4938513;29;20020;-81
2023/03/04 03:35:41;;;;;;;24.70;18.35;;;;;;;-142.70;100.00;60390.16;4934471;29;20035;-80
2023/03/04 03:38:06;;;;;;;22.42;18.45;;;;;;;-142.70;100.00;60390.16;4933847;29;20087;-80
2023/03/04 03:40:31;;;;;;;24.92;18.48;;;;;;;-142.70;100.00;60390.16;4927842;29;20106;-80
2023/03/04 03:42:57;;;;;;;22.98;18.35;;;;;;;-142.70;100.00;60390.16;4925697;29;20091;-81
2023/03/04 03:45:22;;;;;;;24.08;19.88;;;;;;;-142.70;100.00;60390.16;4926403;29;20568;-80
2023/03/04 03:47:48;;;;;;;30.25;20.27;;;;;;;-142.70;100.00;60390.16;4931790;29;20036;-80
2023/03/04 03:50:13;;;;;;;28.38;20.38;;;;;;;-142.70;100.00;60390.16;4931964;29;20020;-81
2023/03/04 03:52:38;;;;;;;23.98;21.40;;;;;;;-142.70;100.00;60390.16;4934814;29;20032;-80
2023/03/04 03:55:04;;;;;;;27.48;21.00;;;;;;;-142.70;100.00;60390.16;4936055;29;20016;-81
2023/03/04 03:57:30;;;;;;;25.65;20.25;;;;;;;-142.70;100.00;60390.16;4939338;29;20023;-82
2023/03/04 03:59:55;;;;;;;24.45;20.38;;;;;;;-142.70;100.00;60390.16;4946455;29;20121;-79
2023/03/04 04:02:21;;;;;;;28.50;22.08;;;;;;;-142.70;100.00;60390.16;4957436;28;20552;-80
2023/03/04 04:04:47;;;;;;;31.15;22.55;;;;;;;-142.70;100.00;60390.16;4939702;28;20054;-81
2023/03/04 04:07:12;;;;;;;32.85;23.83;;;;;;;-142.70;100.00;60390.16;4946800;29;20042;-82
2023/03/04 04:09:38;;;;;;;31.00;24.58;;;;;;;-142.70;100.00;60390.16;4944971;29;20028;-81
2023/03/04 04:12:05;;;;;;;27.88;22.70;;;;;;;-142.70;100.00;60390.16;4955331;29;20023;-82
2023/03/04 04:14:30;;;;;;;31.13;22.95;;;;;;;-142.70;100.00;60390.16;4955796;29;20007;-81
2023/03/04 04:16:55;;;;;;;32.92;24.17;;;;;;;-142.70;100.00;60390.16;4955836;28;20091;-81
2023/03/04 04:19:21;;;;;;;35.75;25.42;;;;;;;-142.70;100.00;60390.16;4974300;29;20027;-81
2023/03/04 04:21:47;;;;;;;34.92;25.83;;;;;;;-142.70;100.00;60390.16;4974347;28;20037;-81
2023/03/04 04:24:12;;;;;;;36.88;27.65;;;;;;;-142.70;100.00;60390.16;4974631;29;20035;-82
2023/03/04 04:26:38;;;;;;;35.80;25.63;;;;;;;-142.70;100.00;60390.16;4958426;29;20023;-81
2023/03/04 04:29:03;;;;;;;35.67;26.27;;;;;;;-142.70;100.00;60390.16;4954865;29;20023;-81
2023/03/04 04:31:30;;;;;;;31.27;23.67;;;;;;;-142.70;100.00;60390.16;4960672;29;20060;-81
2023/03/04 04:33:55;;;;;;;32.70;23.65;;;;;;;-142.70;100.00;60390.16;4954788;28;20083;-79
2023/03/04 04:36:21;;;;;;;33.70;25.20;;;;;;;-142.70;100.00;60390.16;4945503;28;20016;-80
2023/03/04 04:38:48;;;;;;;37.85;27.00;;;;;;;-142.70;100.00;60390.16;4973810;28;20051;-80
2023/03/04 04:41:19;;;;;;;33.55;24.92;;;;;;;-142.70;100.00;60390.16;4970947;29;20033;-80
2023/03/04 04:43:46;;;;;;;41.55;29.58;;;;;;;-142.70;100.00;60390.16;4951180;29;20090;-81
2023/03/04 04:46:13;;;;;;;33.60;24.38;;;;;;;-142.70;100.00;60390.16;4958318;29;20058;-82
2023/03/04 04:48:38;;;;;;;36.03;27.10;;;;;;;-142.70;100.00;60390.16;4958695;28;20042;-81
2023/03/04 04:51:04;;;;;;;36.30;25.95;;;;;;;-142.70;100.00;60390.16;4972929;28;20007;-82
2023/03/04 04:53:29;;;;;;;36.92;28.40;;;;;;;-142.70;100.00;60390.16;4953501;29;20035;-80
2023/03/04 04:55:55;;;;;;;37.80;29.85;;;;;;;-142.70;100.00;60390.16;4965608;29;20045;-80
2023/03/04 04:58:20;;;;;;;41.85;28.02;;;;;;;-142.70;100.00;60390.16;4968776;29;20066;-81
2023/03/04 05:00:46;;;;;;;37.20;28.65;;;;;;;-142.70;100.00;60390.16;4966407;28;20564;-79
2023/03/04 05:03:11;;;;;;;35.70;27.35;;;;;;;-142.70;100.00;60390.16;4957781;29;20027;-80
2023/03/04 05:05:36;;;;;;;40.88;28.38;;;;;;;-142.70;100.00;60390.16;4963402;28;20015;-80
2023/03/04 05:08:02;;;;;;;37.03;27.77;;;;;;;-142.70;100.00;60390.16;4960612;28;20031;-82
2023/03/04 05:10:27;;;;;;;41.47;28.02;;;;;;;-142.70;100.00;60390.16;4974465;28;20031;-82
2023/03/04 05:12:53;;;;;;;37.22;27.77;;;;;;;-142.70;100.00;60390.16;4975017;29;20054;-83
2023/03/04 05:15:18;;;;;;;40.63;27.70;;;;;;;-142.70;100.00;60390.16;4959520;29;20043;-82
2023/03/04 05:17:44;;;;;;;39.95;29.90;;;;;;;-142.70;100.00;60390.16;4958915;28;20043;-83
2023/03/04 05:20:10;;;;;;;45.53;29.45;;;;;;;-142.70;100.00;60390.16;4968090;28;20038;-83
2023/03/04 05:22:35;;;;;;;47.03;32.35;;;;;;;-142.70;100.00;60390.16;4961771;29;20047;-81
2023/03/04 05:25:01;;;;;;;40.38;27.90;;;;;;;-142.70;100.00;60390.16;4974101;29;20039;-81
2023/03/04 05:27:26;;;;;;;43.80;29.70;;;;;;;-142.70;100.00;60390.16;4975140;29;20039;-82
2023/03/04 05:29:52;;;;;;;42.33;27.50;;;;;;;-142.70;100.00;60390.16;4960776;28;20019;-82
2023/03/04 05:32:18;;;;;;;42.22;28.92;;;;;;;-142.70;100.00;60390.16;4975095;29;20023;-82
2023/03/04 05:34:43;;;;;;;38.60;27.92;;;;;;;-142.70;100.00;60390.16;4942321;29;20042;-82
2023/03/04 05:37:09;;;;;;;39.92;27.98;;;;;;;-142.70;100.00;60390.16;4955260;29;20103;-81
2023/03/04 05:39:34;;;;;;;45.17;30.33;;;;;;;-142.70;100.00;60390.16;4955555;29;20019;-81
2023/03/04 05:42:00;;;;;;;46.17;30.42;;;;;;;-142.70;100.00;60390.16;4971860;28;20087;-81
2023/03/04 05:44:25;;;;;;;41.10;29.10;;;;;;;-142.70;100.00;60390.16;4975281;29;20075;-81
2023/03/04 05:46:50;;;;;;;44.17;29.27;;;;;;;-142.70;100.00;60390.16;4975129;28;20039;-81
2023/03/04 05:49:16;;;;;;;44.35;29.30;;;;;;;-142.70;100.00;60390.16;4967444;29;20032;-82
2023/03/04 05:51:41;;;;;;;45.03;29.65;;;;;;;-142.70;100.00;60390.16;4955939;29;20040;-82
2023/03/04 05:54:07;;;;;;;43.08;28.98;;;;;;;-142.70;100.00;60390.16;4955440;29;20023;-82
2023/03/04 05:56:32;;;;;;;46.38;30.55;;;;;;;-142.70;100.00;60390.16;4959858;28;20027;-81
2023/03/04 05:58:58;;;;;;;48.30;31.88;;;;;;;-142.70;100.00;60390.16;4959194;28;20055;-81
2023/03/04 06:01:24;;;;;;;46.58;30.80;;;;;;;-142.70;100.00;60390.16;4964873;29;20095;-82
2023/03/04 06:03:49;;;;;;;47.15;31.85;;;;;;;-142.70;100.00;60390.16;4978826;28;20027;-82
2023/03/04 06:06:15;;;;;;;45.08;31.25;;;;;;;-142.70;100.00;60390.16;4960809;29;20047;-83
2023/03/04 06:11:16;;;;;;;50.17;32.03;;;;;;;-142.70;100.00;60390.16;5016370;23;20039;-83
2023/03/04 06:13:42;;;;;;;50.28;32.65;;;;;;;-142.70;100.00;60390.16;5063243;23;20094;-83
2023/03/04 06:16:08;;;;;;;48.88;33.45;;;;;;;-142.70;100.00;60390.16;4958929;29;20023;-83
2023/03/04 06:18:34;;;;;;;46.30;31.77;;;;;;;-142.70;100.00;60390.16;4955865;28;20041;-82
2023/03/04 06:21:01;;;;;;;48.55;32.10;;;;;;;-142.70;100.00;60390.16;4995438;28;20015;-83
2023/03/04 06:23:28;;;;;;;47.92;31.20;;;;;;;-142.70;100.00;60390.16;4977892;28;20030;-82
2023/03/04 06:25:56;;;;;;;44.88;30.63;;;;;;;-142.70;100.00;60390.16;4979445;28;20035;-82
2023/03/04 06:28:22;;;;;;;41.47;29.98;;;;;;;-142.70;100.00;60390.16;4984420;28;20038;-83
2023/03/04 06:30:51;;;;;;;49.47;31.05;;;;;;;-142.70;100.00;60390.16;4976591;29;20023;-83
2023/03/04 06:33:17;;;;;;;48.42;32.92;;;;;;;-142.70;100.00;60390.16;4970315;28;20037;-83
2023/03/04 06:35:43;;;;;;;44.10;31.55;;;;;;;-142.70;100.00;60390.16;4982973;28;20035;-82
2023/03/04 06:38:10;;;;;;;39.95;29.55;;;;;;;-142.70;100.00;60390.16;4986007;28;20015;-83
2023/03/04 06:40:36;;;;;;;43.10;30.63;;;;;;;-142.70;100.00;60390.16;4968125;28;20026;-83
2023/03/04 06:43:01;;;;;;;42.45;29.25;;;;;;;-142.70;100.00;60390.16;4964202;29;20038;-82
2023/03/04 06:45:27;;;;;;;45.17;29.65;;;;;;;-142.70;100.00;60390.16;4980879;28;20007;-83
2023/03/04 06:47:53;;;;;;;41.08;29.13;;;;;;;-142.70;100.00;60390.16;4989687;28;20117;-83
2023/03/04 06:50:19;;;;;;;40.10;28.17;;;;;;;-142.70;100.00;60390.16;4983844;28;20014;-82
2023/03/04 06:52:48;;;;;;;41.15;30.75;;;;;;;-142.70;100.00;60390.16;4982629;28;20054;-83
2023/03/04 06:55:14;;;;;;;36.85;26.70;;;;;;;-142.70;100.00;60390.16;4965559;28;20023;-82
2023/03/04 06:57:39;;;;;;;40.78;28.80;;;;;;;-142.70;100.00;60390.16;4998642;28;20034;-82
2023/03/04 07:00:06;;;;;;;34.28;23.45;;;;;;;-142.70;100.00;60390.16;4969698;29;20037;-82
2023/03/04 07:02:31;;;;;;;28.63;22.95;;;;;;;-142.70;100.00;60390.16;4962131;28;20011;-80
2023/03/04 07:04:57;;;;;;;32.75;23.77;;;;;;;-142.70;100.00;60390.16;4951893;29;20045;-82
2023/03/04 07:07:25;;;;;;;30.60;22.25;;;;;;;-142.70;100.00;60390.16;4964908;29;20040;-82
2023/03/04 07:09:50;;;;;;;30.17;22.45;;;;;;;-142.70;100.00;60390.16;5004562;24;20065;-81
2023/03/04 07:12:15;;;;;;;31.40;22.55;;;;;;;-142.70;100.00;60390.16;4973234;29;20420;-80
2023/03/04 07:17:16;;;;;;;30.23;21.55;;;;;;;-142.70;100.00;60390.16;5022274;23;20051;-81
2023/03/04 07:19:43;;;;;;;28.73;21.27;;;;;;;-142.70;100.00;60390.16;4959925;29;20061;-83
2023/03/04 07:22:09;;;;;;;27.48;21.95;;;;;;;-142.70;100.00;60390.16;4973628;28;20031;-82
2023/03/04 07:24:35;;;;;;;28.20;20.73;;;;;;;-142.70;100.00;60390.16;4963310;28;20034;-82
2023/03/04 07:27:01;;;;;;;26.60;19.95;;;;;;;-142.70;100.00;60390.16;4964356;28;20023;-82
2023/03/04 07:29:26;;;;;;;27.00;19.52;;;;;;;-142.70;100.00;60390.16;4971608;28;20083;-82
2023/03/04 07:31:52;;;;;;;23.98;17.17;;;;;;;-142.70;100.00;60390.16;4978260;28;20031;-83
2023/03/04 07:34:18;;;;;;;20.80;16.55;;;;;;;-142.70;100.00;60390.16;4952039;29;20022;-82
2023/03/04 07:36:43;;;;;;;18.85;15.38;;;;;;;-142.70;100.00;60390.16;4961982;28;20050;-81
2023/03/04 07:39:11;;;;;;;18.10;15.32;;;;;;;-142.70;100.00;60390.16;4957139;28;20102;-80
2023/03/04 07:41:40;;;;;;;19.65;15.65;;;;;;;-142.70;100.00;60390.16;4962901;28;20110;-79
2023/03/04 07:44:07;;;;;;;17.55;14.52;;;;;;;-142.70;100.00;60390.16;4960013;29;20055;-81
2023/03/04 07:46:33;;;;;;;19.45;16.13;;;;;;;-142.70;100.00;60390.16;4967814;28;20038;-80
2023/03/04 07:48:59;;;;;;;20.33;15.90;;;;;;;-142.70;100.00;60390.16;4960070;29;20053;-80
2023/03/04 07:51:25;;;;;;;21.42;15.73;;;;;;;-142.70;100.00;60390.16;4979085;28;20034;-83
2023/03/04 07:53:57;;;;;;;27.77;18.00;;;;;;;-142.70;100.00;60390.16;4966766;28;20065;-83
2023/03/04 07:56:26;;;;;;;20.42;16.90;;;;;;;-142.70;100.00;60390.16;4991394;28;20026;-82
2023/03/04 07:58:52;;;;;;;24.25;18.48;;;;;;;-142.70;100.00;60390.16;4979921;28;20047;-82
2023/03/04 08:01:21;;;;;;;22.75;17.48;;;;;;;-142.70;100.00;60390.16;4985726;28;20028;-82
2023/03/04 08:03:47;;;;;;;27.90;21.10;;;;;;;-142.70;100.00;60390.16;4982470;28;20019;-84
2023/03/04 08:06:15;;;;;;;26.55;19.70;;;;;;;-142.70;100.00;60390.16;4963665;29;20008;-82
2023/03/04 08:08:41;;;;;;;26.55;19.75;;;;;;;-142.70;100.00;60390.16;4980550;28;20031;-83
2023/03/04 08:11:15;;;;;;;27.52;20.40;;;;;;;-142.70;100.00;60390.16;4975655;29;20042;-84
2023/03/04 08:13:41;;;;;;;23.80;18.70;;;;;;;-142.70;100.00;60390.16;4943578;29;20028;-84
2023/03/04 08:16:07;;;;;;;23.67;19.15;;;;;;;-142.70;100.00;60390.16;4951131;29;20366;-82
2023/03/04 08:18:33;;;;;;;28.75;21.63;;;;;;;-142.70;100.00;60390.16;4961283;29;20015;-83
2023/03/04 08:20:58;;;;;;;25.30;20.48;;;;;;;-142.70;100.00;60390.16;4960727;29;20449;-83
2023/03/04 08:23:24;;;;;;;21.92;17.85;;;;;;;-142.70;100.00;60390.16;4959762;29;20052;-82
2023/03/04 08:25:50;;;;;;;25.10;17.98;;;;;;;-142.70;100.00;60390.16;4973462;29;20020;-83
2023/03/04 08:28:17;;;;;;;18.25;15.60;;;;;;;-142.70;100.00;60390.16;4944349;29;20139;-82
2023/03/04 08:30:43;;;;;;;21.60;17.20;;;;;;;-142.70;100.00;60390.16;4943471;29;20677;-83
2023/03/04 08:33:09;;;;;;;18.92;16.90;;;;;;;-142.70;100.00;60390.16;4959659;28;20023;-82
2023/03/04 08:35:39;;;;;;;19.27;15.90;;;;;;;-142.70;100.00;60390.16;4943783;29;20094;-83
2023/03/04 08:38:05;;;;;;;22.45;15.00;;;;;;;-142.70;100.00;60390.16;4959590;29;20095;-82
2023/03/04 08:40:30;;;;;;;25.52;17.65;;;;;;;-142.70;100.00;60390.16;4942893;29;20105;-79
2023/03/04 08:42:56;;;;;;;13.10;11.73;;;;;;;-142.70;100.00;60390.16;4931450;29;20580;-80
2023/03/04 08:45:21;;;;;;;13.93;11.32;;;;;;;-142.70;100.00;60390.16;4927921;29;20036;-80
2023/03/04 08:47:47;;;;;;;15.05;11.57;;;;;;;-142.70;100.00;60390.16;4945720;29;20391;-79
2023/03/04 08:50:13;;;;;;;18.23;13.10;;;;;;;-142.70;100.00;60390.16;4938000;29;20089;-79
2023/03/04 08:52:38;;;;;;;16.13;14.45;;;;;;;-142.70;100.00;60390.16;4943574;29;20062;-81
2023/03/04 08:55:04;;;;;;;20.20;15.95;;;;;;;-142.70;100.00;60390.16;4935021;29;20097;-80
2023/03/04 08:57:29;;;;;;;20.08;15.32;;;;;;;-142.70;100.00;60390.16;4952566;28;20039;-80
2023/03/04 08:59:55;;;;;;;21.80;14.90;;;;;;;-142.70;100.00;60390.16;4920878;28;20031;-79
2023/03/04 09:02:20;;;;;;;23.17;16.00;;;;;;;-142.70;100.00;60390.16;4934185;29;20030;-81
2023/03/04 09:04:46;;;;;;;18.60;15.55;;;;;;;-142.70;100.00;60390.16;4937339;29;20023;-80
2023/03/04 09:07:12;;;;;;;21.58;16.10;;;;;;;-142.70;100.00;60390.16;4967680;28;20022;-80
2023/03/04 09:09:38;;;;;;;16.52;13.35;;;;;;;-142.70;100.00;60390.16;4973983;28;20035;-79
2023/03/04 09:12:04;;;;;;;17.33;14.82;;;;;;;-142.70;100.00;60390.16;4953262;29;20031;-80
2023/03/04 09:14:29;;;;;;;17.10;14.20;;;;;;;-142.70;100.00;60390.16;4973657;29;20035;-80
2023/03/04 09:16:54;;;;;;;15.27;13.50;;;;;;;-142.70;100.00;60390.16;4949873;28;20095;-79
2023/03/04 09:19:20;;;;;;;22.85;15.05;;;;;;;-142.70;100.00;60390.16;4928443;29;20023;-79
2023/03/04 09:21:45;;;;;;;17.27;13.85;;;;;;;-142.70;100.00;60390.16;4942997;28;20063;-80
2023/03/04 09:24:11;;;;;;;25.30;13.63;;;;;;;-142.70;100.00;60390.16;4921425;29;20027;-79
2023/03/04 09:26:36;;;;;;;14.68;12.98;;;;;;;-142.70;100.00;60390.16;4922677;29;20035;-80
2023/03/04 09:29:03;;;;;;;18.92;14.93;;;;;;;-142.70;100.00;60390.16;4922085;29;20015;-80
2023/03/04 09:31:28;;;;;;;16.52;13.73;;;;;;;-142.70;100.00;60390.16;4951595;28;20125;-79
2023/03/04 09:33:55;;;;;;;18.60;13.02;;;;;;;-142.70;100.00;60390.16;4920125;29;20075;-78
2023/03/04 09:36:21;;;;;;;16.27;13.05;;;;;;;-142.70;100.00;60390.16;4928645;29;20031;-79
2023/03/04 09:38:46;;;;;;;15.57;12.68;;;;;;;-142.70;100.00;60390.16;4932501;28;20034;-79
2023/03/04 09:41:21;;;;;;;17.45;13.45;;;;;;;-142.70;100.00;60390.16;4928766;29;20129;-79
2023/03/04 09:43:49;;;;;;;14.40;12.95;;;;;;;-142.70;100.00;60390.16;4945326;28;20091;-79
2023/03/04 09:46:17;;;;;;;18.27;14.18;;;;;;;-142.70;100.00;60390.16;4922033;29;20083;-79
2023/03/04 09:48:53;;;;;;;16.25;11.90;;;;;;;-142.70;100.00;60390.16;4913492;29;20406;-78
2023/03/04 09:51:28;;;;;;;13.45;12.15;;;;;;;-142.70;100.00;60390.16;4913085;29;20175;-78
2023/03/04 09:54:11;;;;;;;14.25;11.45;;;;;;;-142.70;100.00;60390.16;4946862;28;20039;-79
2023/03/04 09:56:38;;;;;;;15.77;14.00;;;;;;;-142.70;100.00;60390.16;4900423;29;20421;-78
2023/03/04 09:59:21;;;;;;;20.77;15.23;;;;;;;-142.70;100.00;60390.16;4915645;29;20081;-79
2023/03/04 10:01:50;;;;;;;16.02;13.80;;;;;;;-142.70;100.00;60390.16;4945819;28;20043;-79
2023/03/04 10:04:39;;;;;;;19.67;13.75;;;;;;;-142.70;100.00;60390.16;4945638;29;20074;-79
2023/03/04 10:07:14;;;;;;;16.30;14.35;;;;;;;-142.70;100.00;60390.16;4941090;29;20027;-81
2023/03/04 10:09:45;;;;;;;19.50;14.20;;;;;;;-142.70;100.00;60390.16;4945824;29;20027;-80
2023/03/04 10:12:13;;;;;;;18.85;15.05;;;;;;;-142.70;100.00;60390.16;4945040;29;20043;-80
2023/03/04 10:14:50;;;;;;;20.63;15.52;;;;;;;-142.70;100.00;60390.16;4933515;29;20066;-81
2023/03/04 10:17:23;;;;;;;16.25;14.05;;;;;;;-142.70;100.00;60390.16;4961521;28;20126;-79
2023/03/04 10:20:20;;;;;;;21.85;14.95;;;;;;;-142.70;100.00;60390.16;4958852;29;20054;-79
2023/03/04 10:22:47;;;;;;;16.98;14.93;;;;;;;-142.70;100.00;60390.16;4927360;28;20118;-79
2023/03/04 10:25:31;;;;;;;16.95;14.35;;;;;;;-142.70;100.00;60390.16;4945937;29;20108;-79
2023/03/04 10:28:02;;;;;;;17.52;14.68;;;;;;;-142.70;100.00;60390.16;4944053;29;20465;-80
2023/03/04 10:30:40;;;;;;;17.08;14.25;;;;;;;-142.70;100.00;60390.16;4944583;29;20472;-80
2023/03/04 10:33:14;;;;;;;21.13;16.50;;;;;;;-142.70;100.00;60390.16;4956966;28;20023;-80
2023/03/04 10:35:43;;;;;;;22.55;17.73;;;;;;;-142.70;100.00;60390.16;4954204;28;20031;-79
2023/03/04 10:38:09;;;;;;;19.05;15.93;;;;;;;-142.70;100.00;60390.16;4922184;29;20035;-79
2023/03/04 10:40:39;;;;;;;17.48;14.90;;;;;;;-142.70;100.00;60390.16;4946127;29;20513;-80
2023/03/04 10:43:07;;;;;;;18.17;15.18;;;;;;;-142.70;100.00;60390.16;4941810;29;20035;-80
2023/03/04 10:45:38;;;;;;;21.67;15.60;;;;;;;-142.70;100.00;60390.16;4929953;29;20028;-80
2023/03/04 10:48:03;;;;;;;19.35;15.23;;;;;;;-142.70;100.00;60390.16;4941887;29;20028;-80
2023/03/04 10:50:29;;;;;;;17.45;15.05;;;;;;;-142.70;100.00;60390.16;4926004;29;20099;-80
2023/03/04 10:52:56;;;;;;;17.83;14.45;;;;;;;-142.70;100.00;60390.16;4937171;29;20027;-80
2023/03/04 10:55:26;;;;;;;18.40;14.55;;;;;;;-142.70;100.00;60390.16;4938804;29;20051;-80
2023/03/04 10:57:54;;;;;;;21.35;16.25;;;;;;;-142.70;100.00;60390.16;4923935;29;20023;-80